createdAt,value
2018-03-17T00:01:27.951Z,2.82
2018-03-17T00:03:05.337Z,3.07
2018-03-17T00:04:43.235Z,3.08
2018-03-17T00:06:21.225Z,3.05
2018-03-17T00:07:59.387Z,2.89
2018-03-17T00:09:37.571Z,2.83
2018-03-17T00:11:14.717Z,2.48
2018-03-17T00:12:52.196Z,2.38
2018-03-17T00:14:30.438Z,2.44
2018-03-17T00:16:08.601Z,2.63
2018-03-17T00:17:46.106Z,2.44
2018-03-17T00:19:23.749Z,2.78
2018-03-17T00:21:01.259Z,2.48
2018-03-17T00:22:38.538Z,2.63
2018-03-17T00:24:15.985Z,2.74
2018-03-17T00:25:54.705Z,2.57
2018-03-17T00:27:31.965Z,2.57
2018-03-17T00:29:09.239Z,2.58
2018-03-17T00:30:47.216Z,2.81
2018-03-17T00:32:24.881Z,2.68
2018-03-17T00:34:02.360Z,2.72
2018-03-17T00:35:39.905Z,2.75
2018-03-17T00:37:17.638Z,2.44
2018-03-17T00:38:55.161Z,2.43
2018-03-17T00:40:32.861Z,2.44
2018-03-17T00:42:10.624Z,2.58
2018-03-17T00:43:48.186Z,2.21
2018-03-17T00:45:27.983Z,1.93
2018-03-17T00:47:05.861Z,2.02
2018-03-17T00:48:43.474Z,2.30
2018-03-17T00:50:21.547Z,2.55
2018-03-17T00:51:59.957Z,2.48
2018-03-17T00:53:37.418Z,2.29
2018-03-17T00:55:15.551Z,2.53
2018-03-17T00:56:53.056Z,2.43
2018-03-17T00:58:31.679Z,2.03
2018-03-17T01:00:10.029Z,1.88
2018-03-17T01:01:47.686Z,1.99
2018-03-17T01:03:25.145Z,1.97
2018-03-17T01:05:04.500Z,2.25
2018-03-17T01:06:42.021Z,1.95
2018-03-17T01:08:19.862Z,2.01
2018-03-17T01:09:57.421Z,2.06
2018-03-17T01:11:36.034Z,2.24
2018-03-17T01:13:14.800Z,2.33
2018-03-17T01:14:56.871Z,1.89
2018-03-17T01:16:36.621Z,1.72
2018-03-17T01:18:16.297Z,1.76
2018-03-17T01:19:58.709Z,1.82
2018-03-17T01:21:40.478Z,2.04
2018-03-17T01:23:25.484Z,2.46
2018-03-17T01:25:06.327Z,2.42
2018-03-17T01:26:49.312Z,2.43
2018-03-17T01:28:33.877Z,2.51
2018-03-17T01:30:15.062Z,2.33
2018-03-17T01:31:56.096Z,2.50
2018-03-17T01:33:35.007Z,2.41
2018-03-17T01:35:13.973Z,2.02
2018-03-17T01:36:52.075Z,1.89
2018-03-17T01:38:31.507Z,2.02
2018-03-17T01:40:10.883Z,2.11
2018-03-17T01:41:50.681Z,2.10
2018-03-17T01:43:28.302Z,2.07
2018-03-17T01:45:06.443Z,1.96
2018-03-17T01:46:45.090Z,1.86
2018-03-17T01:48:22.832Z,2.09
2018-03-17T01:50:00.811Z,2.31
2018-03-17T01:51:39.338Z,1.88
2018-03-17T01:53:18.440Z,1.79
2018-03-17T01:54:55.925Z,1.63
2018-03-17T01:56:33.577Z,1.59
2018-03-17T01:58:12.992Z,1.66
2018-03-17T01:59:51.107Z,1.98
2018-03-17T02:01:28.964Z,2.31
2018-03-17T02:03:07.003Z,1.98
2018-03-17T02:04:44.573Z,1.55
2018-03-17T02:06:22.540Z,1.65
2018-03-17T02:08:00.397Z,1.94
2018-03-17T02:09:37.955Z,1.89
2018-03-17T02:11:15.713Z,1.81
2018-03-17T02:12:53.987Z,1.72
2018-03-17T02:14:32.488Z,1.83
2018-03-17T02:16:10.645Z,1.49
2018-03-17T02:17:48.356Z,1.53
2018-03-17T02:19:26.712Z,1.56
2018-03-17T02:21:04.444Z,1.79
2018-03-17T02:22:41.904Z,1.57
2018-03-17T02:24:19.514Z,1.53
2018-03-17T02:26:02.785Z,1.54
2018-03-17T02:29:21.581Z,1.53
2018-03-17T02:30:59.625Z,1.31
2018-03-17T02:32:37.464Z,1.34
2018-03-17T02:34:15.080Z,1.38
2018-03-17T02:35:53.022Z,1.68
2018-03-17T02:37:31.513Z,1.46
2018-03-17T02:39:09.408Z,1.52
2018-03-17T02:40:46.444Z,1.76
2018-03-17T02:42:24.515Z,1.47
2018-03-17T02:44:02.824Z,1.05
2018-03-17T02:45:41.554Z,1.08
2018-03-17T02:47:20.054Z,1.26
2018-03-17T02:48:58.340Z,1.13
2018-03-17T02:50:35.862Z,1.12
2018-03-17T02:52:13.610Z,1.29
2018-03-17T02:53:51.567Z,1.19
2018-03-17T02:55:30.259Z,1.10
2018-03-17T02:57:07.778Z,1.01
2018-03-17T02:58:45.661Z,1.12
2018-03-17T03:00:25.364Z,1.19
2018-03-17T03:02:03.070Z,1.00
2018-03-17T03:03:40.440Z,1.16
2018-03-17T03:05:18.560Z,1.07
2018-03-17T03:06:55.769Z,0.82
2018-03-17T03:08:33.327Z,0.81
2018-03-17T03:10:11.185Z,0.96
2018-03-17T03:11:48.433Z,0.84
2018-03-17T03:13:25.565Z,1.16
2018-03-17T03:15:02.622Z,1.19
2018-03-17T03:16:40.837Z,1.12
2018-03-17T03:18:18.408Z,0.91
2018-03-17T03:19:55.224Z,0.97
2018-03-17T03:21:32.069Z,0.84
2018-03-17T03:23:08.975Z,0.94
2018-03-17T03:24:46.631Z,1.23
2018-03-17T03:26:23.330Z,1.46
2018-03-17T03:28:00.348Z,1.51
2018-03-17T03:29:38.422Z,1.43
2018-03-17T03:31:16.265Z,1.17
2018-03-17T03:32:53.661Z,0.96
2018-03-17T03:34:32.227Z,1.03
2018-03-17T03:36:10.851Z,0.75
2018-03-17T03:37:49.364Z,0.68
2018-03-17T03:39:26.596Z,0.96
2018-03-17T03:41:03.394Z,0.92
2018-03-17T03:42:40.180Z,0.86
2018-03-17T03:44:17.912Z,0.76
2018-03-17T03:45:56.285Z,0.63
2018-03-17T03:47:33.381Z,0.59
2018-03-17T03:49:10.861Z,1.01
2018-03-17T03:50:48.615Z,0.87
2018-03-17T03:52:25.768Z,0.80
2018-03-17T03:54:03.116Z,0.46
2018-03-17T03:55:39.695Z,0.66
2018-03-17T03:57:16.997Z,0.88
2018-03-17T03:58:53.968Z,1.02
2018-03-17T04:00:31.060Z,1.04
2018-03-17T04:02:07.692Z,0.95
2018-03-17T04:03:44.704Z,0.80
2018-03-17T04:05:21.944Z,0.83
2018-03-17T04:06:59.281Z,0.82
2018-03-17T04:08:36.795Z,0.70
2018-03-17T04:10:14.457Z,0.53
2018-03-17T04:11:51.210Z,0.43
2018-03-17T04:13:27.986Z,0.54
2018-03-17T04:15:05.334Z,0.91
2018-03-17T04:16:44.468Z,0.62
2018-03-17T04:18:21.911Z,0.58
2018-03-17T04:19:58.550Z,0.76
2018-03-17T04:21:36.036Z,0.58
2018-03-17T04:23:14.292Z,0.68
2018-03-17T04:24:51.046Z,0.61
2018-03-17T04:26:27.920Z,0.61
2018-03-17T04:28:05.009Z,0.87
2018-03-17T04:29:42.517Z,0.64
2018-03-17T04:31:20.045Z,0.65
2018-03-17T04:32:56.741Z,0.76
2018-03-17T04:34:33.421Z,0.64
2018-03-17T04:37:45.861Z,0.62
2018-03-17T04:39:23.428Z,0.56
2018-03-17T04:41:00.183Z,0.51
2018-03-17T04:42:38.035Z,0.59
2018-03-17T04:44:15.796Z,0.67
2018-03-17T04:45:59.127Z,0.58
2018-03-17T04:47:35.804Z,0.71
2018-03-17T04:49:12.923Z,0.86
2018-03-17T04:50:49.951Z,0.57
2018-03-17T04:52:26.772Z,0.48
2018-03-17T04:54:03.419Z,0.37
2018-03-17T04:55:40.962Z,0.59
2018-03-17T04:57:18.456Z,0.62
2018-03-17T04:58:55.501Z,0.40
2018-03-17T05:00:32.848Z,0.59
2018-03-17T05:02:10.044Z,0.72
2018-03-17T05:03:47.843Z,0.39
2018-03-17T05:05:24.716Z,0.18
2018-03-17T05:07:02.147Z,0.11
2018-03-17T05:08:38.901Z,-0.01
2018-03-17T05:10:15.761Z,0.15
2018-03-17T05:11:52.933Z,0.49
2018-03-17T05:13:29.782Z,0.52
2018-03-17T05:15:07.680Z,0.58
2018-03-17T05:16:44.997Z,0.24
2018-03-17T05:18:22.934Z,0.24
2018-03-17T05:19:59.559Z,0.22
2018-03-17T05:21:38.036Z,0.23
2018-03-17T05:23:18.775Z,0.59
2018-03-17T05:24:55.505Z,0.80
2018-03-17T05:26:33.913Z,0.60
2018-03-17T05:29:49.788Z,0.59
2018-03-17T05:31:26.512Z,0.65
2018-03-17T05:33:03.245Z,0.52
2018-03-17T05:34:41.187Z,0.45
2018-03-17T05:36:18.172Z,0.70
2018-03-17T05:37:55.750Z,0.29
2018-03-17T05:39:33.108Z,-0.03
2018-03-17T05:41:10.760Z,-0.15
2018-03-17T05:42:48.389Z,0.12
2018-03-17T05:44:26.063Z,0.32
2018-03-17T05:46:03.379Z,0.15
2018-03-17T05:47:40.831Z,0.07
2018-03-17T05:49:18.605Z,0.18
2018-03-17T05:50:56.296Z,0.15
2018-03-17T05:52:34.182Z,-0.11
2018-03-17T05:54:13.053Z,0.03
2018-03-17T05:55:50.336Z,-0.04
2018-03-17T05:57:27.694Z,-0.10
2018-03-17T05:59:05.277Z,0.05
2018-03-17T06:00:43.551Z,-0.23
2018-03-17T06:02:21.301Z,-0.30
2018-03-17T06:03:58.421Z,-0.21
2018-03-17T06:05:35.636Z,0.11
2018-03-17T06:07:12.994Z,0.21
2018-03-17T06:08:51.076Z,0.01
2018-03-17T06:10:52.030Z,0.12
2018-03-17T06:12:29.819Z,-0.01
2018-03-17T06:14:54.793Z,-0.19
2018-03-17T06:16:33.121Z,-0.21
2018-03-17T06:18:11.081Z,0.06
2018-03-17T06:19:48.317Z,-0.05
2018-03-17T06:21:25.882Z,-0.15
2018-03-17T06:23:03.138Z,0.11
2018-03-17T06:24:41.863Z,0.18
2018-03-17T06:26:19.283Z,0.08
2018-03-17T06:27:56.621Z,0.23
2018-03-17T06:29:34.221Z,-0.09
2018-03-17T06:31:13.101Z,-0.10
2018-03-17T06:32:51.070Z,0.01
2018-03-17T06:34:28.623Z,-0.30
2018-03-17T06:36:11.400Z,-0.38
2018-03-17T06:37:49.702Z,-0.34
2018-03-17T06:39:29.770Z,-0.17
2018-03-17T06:41:08.408Z,-0.21
2018-03-17T06:42:51.281Z,-0.21
2018-03-17T06:44:30.524Z,0.04
2018-03-17T06:46:12.046Z,0.04
2018-03-17T06:47:56.732Z,-0.23
2018-03-17T06:49:53.513Z,-0.27
2018-03-17T06:51:32.133Z,-0.13
2018-03-17T06:53:10.711Z,0.27
2018-03-17T06:54:48.651Z,0.24
2018-03-17T06:56:27.024Z,-0.07
2018-03-17T06:58:06.737Z,-0.17
2018-03-17T06:59:45.301Z,0.04
2018-03-17T07:01:24.519Z,-0.06
2018-03-17T07:03:02.799Z,-0.20
2018-03-17T07:04:42.589Z,-0.22
2018-03-17T07:06:21.360Z,-0.17
2018-03-17T07:07:59.800Z,-0.37
2018-03-17T07:09:44.156Z,-0.45
2018-03-17T07:11:22.795Z,-0.43
2018-03-17T07:13:01.228Z,-0.32
2018-03-17T07:14:39.401Z,-0.16
2018-03-17T07:16:17.782Z,-0.25
2018-03-17T07:17:59.521Z,-0.29
2018-03-17T07:19:37.823Z,-0.35
2018-03-17T07:21:16.988Z,-0.29
2018-03-17T07:23:11.245Z,-0.16
2018-03-17T07:24:51.127Z,-0.13
2018-03-17T07:26:29.542Z,-0.08
2018-03-17T07:28:11.100Z,0.03
2018-03-17T07:29:51.051Z,-0.02
2018-03-17T07:31:31.781Z,0.24
2018-03-17T07:33:10.175Z,-0.09
2018-03-17T07:34:49.601Z,-0.49
2018-03-17T07:36:27.436Z,-0.55
2018-03-17T07:38:07.414Z,-0.62
2018-03-17T07:39:45.323Z,-0.63
2018-03-17T07:41:31.615Z,-0.54
2018-03-17T07:43:09.545Z,-0.69
2018-03-17T07:44:47.129Z,-0.82
2018-03-17T07:46:24.695Z,-0.72
2018-03-17T07:48:03.767Z,-0.59
2018-03-17T07:49:45.085Z,-0.71
2018-03-17T07:51:22.332Z,-0.52
2018-03-17T07:53:00.301Z,-0.53
2018-03-17T07:54:37.862Z,-0.40
2018-03-17T07:56:16.237Z,-0.10
2018-03-17T07:57:54.360Z,-0.40
2018-03-17T07:59:32.024Z,-0.38
2018-03-17T08:01:11.980Z,-0.59
2018-03-17T08:02:52.659Z,-0.48
2018-03-17T08:04:30.771Z,-0.47
2018-03-17T08:06:10.175Z,-0.45
2018-03-17T08:07:48.525Z,-0.57
2018-03-17T08:09:25.868Z,-0.47
2018-03-17T08:11:03.324Z,-0.37
2018-03-17T08:12:40.873Z,-0.14
2018-03-17T08:14:19.044Z,-0.20
2018-03-17T08:15:56.930Z,-0.13
2018-03-17T08:17:34.397Z,-0.08
2018-03-17T08:19:11.916Z,-0.05
2018-03-17T08:20:49.595Z,-0.43
2018-03-17T08:22:26.965Z,-0.50
2018-03-17T08:24:04.446Z,-0.74
2018-03-17T08:25:41.610Z,-0.72
2018-03-17T08:27:19.312Z,-0.74
2018-03-17T08:28:56.721Z,-0.94
2018-03-17T08:30:34.507Z,-0.94
2018-03-17T08:32:12.333Z,-0.91
2018-03-17T08:33:51.855Z,-0.93
2018-03-17T08:35:30.040Z,-0.89
2018-03-17T08:37:07.469Z,-0.97
2018-03-17T08:38:46.864Z,-0.84
2018-03-17T08:40:25.111Z,-0.60
2018-03-17T08:42:02.427Z,-0.71
2018-03-17T08:43:39.548Z,-0.71
2018-03-17T08:45:20.641Z,-0.82
2018-03-17T08:46:59.722Z,-0.69
2018-03-17T08:48:37.860Z,-0.79
2018-03-17T08:50:15.215Z,-0.87
2018-03-17T08:51:54.593Z,-0.97
2018-03-17T08:53:32.033Z,-0.98
2018-03-17T08:55:09.390Z,-0.91
2018-03-17T08:56:46.873Z,-0.91
2018-03-17T08:58:24.149Z,-0.96
2018-03-17T09:00:01.552Z,-0.86
2018-03-17T09:01:39.069Z,-0.88
2018-03-17T09:03:16.252Z,-0.94
2018-03-17T09:04:53.412Z,-0.89
2018-03-17T09:06:31.104Z,-0.84
2018-03-17T09:08:08.292Z,-0.94
2018-03-17T09:09:45.630Z,-0.93
2018-03-17T09:11:22.737Z,-0.75
2018-03-17T09:13:00.328Z,-0.47
2018-03-17T09:14:37.448Z,-0.41
2018-03-17T09:16:15.265Z,-0.46
2018-03-17T09:17:54.027Z,-0.78
2018-03-17T09:19:31.460Z,-0.78
2018-03-17T09:21:08.688Z,-0.95
2018-03-17T09:22:46.070Z,-0.93
2018-03-17T09:24:26.811Z,-0.72
2018-03-17T09:26:04.071Z,-0.84
2018-03-17T09:27:42.294Z,-1.02
2018-03-17T09:29:19.559Z,-0.92
2018-03-17T09:30:58.072Z,-0.65
2018-03-17T09:32:36.422Z,-0.47
2018-03-17T09:34:13.546Z,-0.76
2018-03-17T09:35:50.636Z,-0.83
2018-03-17T09:37:27.931Z,-0.83
2018-03-17T09:39:06.509Z,-0.93
2018-03-17T09:40:43.560Z,-0.76
2018-03-17T09:42:20.681Z,-0.71
2018-03-17T09:43:57.676Z,-0.71
2018-03-17T09:45:35.902Z,-0.93
2018-03-17T09:47:13.045Z,-0.91
2018-03-17T09:48:50.987Z,-0.91
2018-03-17T09:50:28.517Z,-0.87
2018-03-17T09:52:06.873Z,-0.74
2018-03-17T09:53:44.732Z,-0.46
2018-03-17T09:55:22.093Z,-0.51
2018-03-17T09:56:59.440Z,-0.74
2018-03-17T09:58:36.851Z,-0.95
2018-03-17T10:00:15.837Z,-1.02
2018-03-17T10:01:53.305Z,-0.72
2018-03-17T10:03:30.709Z,-0.69
2018-03-17T10:05:07.956Z,-0.82
2018-03-17T10:06:45.020Z,-0.84
2018-03-17T10:08:22.182Z,-0.81
2018-03-17T10:09:59.411Z,-0.71
2018-03-17T10:11:37.802Z,-0.76
2018-03-17T10:13:14.924Z,-0.89
2018-03-17T10:14:52.109Z,-0.73
2018-03-17T10:16:30.248Z,-0.77
2018-03-17T10:18:07.983Z,-0.79
2018-03-17T10:19:45.056Z,-0.52
2018-03-17T10:21:25.255Z,-0.18
2018-03-17T10:23:03.639Z,-0.62
2018-03-17T10:24:42.368Z,-0.74
2018-03-17T10:26:22.907Z,-0.83
2018-03-17T10:28:03.793Z,-0.87
2018-03-17T10:29:43.946Z,-0.91
2018-03-17T10:31:22.351Z,-0.98
2018-03-17T10:33:02.084Z,-0.69
2018-03-17T10:34:41.005Z,-0.77
2018-03-17T10:36:18.370Z,-0.99
2018-03-17T10:37:55.830Z,-1.11
2018-03-17T10:39:36.038Z,-1.08
2018-03-17T10:41:15.004Z,-0.88
2018-03-17T10:42:55.265Z,-0.85
2018-03-17T10:44:32.430Z,-0.92
2018-03-17T10:46:12.474Z,-0.54
2018-03-17T10:47:53.055Z,-0.60
2018-03-17T10:49:34.310Z,-0.63
2018-03-17T10:51:14.182Z,-0.36
2018-03-17T10:52:54.729Z,-0.21
2018-03-17T10:54:33.343Z,-0.48
2018-03-17T10:56:13.178Z,-0.63
2018-03-17T10:59:40.690Z,-0.50
2018-03-17T11:01:22.148Z,-0.55
2018-03-17T11:03:00.215Z,-0.42
2018-03-17T11:04:37.465Z,-0.67
2018-03-17T11:06:14.572Z,-0.74
2018-03-17T11:07:52.696Z,-0.72
2018-03-17T11:09:29.822Z,-0.72
2018-03-17T11:11:08.425Z,-0.83
2018-03-17T11:12:46.961Z,-0.71
2018-03-17T11:14:24.193Z,-0.74
2018-03-17T11:16:01.288Z,-0.56
2018-03-17T11:17:39.291Z,-0.70
2018-03-17T11:19:17.178Z,-0.82
2018-03-17T11:20:54.506Z,-0.87
2018-03-17T11:22:31.741Z,-0.82
2018-03-17T11:24:08.738Z,-0.49
2018-03-17T11:25:46.338Z,-0.55
2018-03-17T11:27:26.105Z,-0.75
2018-03-17T11:29:05.748Z,-0.59
2018-03-17T11:30:43.632Z,-0.64
2018-03-17T11:32:21.336Z,-0.81
2018-03-17T11:33:58.547Z,-0.69
2018-03-17T11:35:35.704Z,-0.63
2018-03-17T11:37:12.740Z,-0.73
2018-03-17T11:38:49.929Z,-0.78
2018-03-17T11:40:27.269Z,-0.94
2018-03-17T11:42:04.382Z,-0.83
2018-03-17T11:43:41.844Z,-0.51
2018-03-17T11:45:20.064Z,-0.40
2018-03-17T11:46:57.832Z,-0.63
2018-03-17T11:48:35.118Z,-0.71
2018-03-17T11:50:14.473Z,-0.69
2018-03-17T11:53:36.096Z,-0.60
2018-03-17T11:55:13.300Z,-0.64
2018-03-17T11:56:50.755Z,-0.77
2018-03-17T11:58:27.652Z,-0.50
2018-03-17T12:00:04.986Z,-0.26
2018-03-17T12:01:42.663Z,-0.37
2018-03-17T12:03:20.951Z,-0.40
2018-03-17T12:04:58.853Z,-0.48
2018-03-17T12:06:36.871Z,-0.37
2018-03-17T12:08:14.984Z,-0.41
2018-03-17T12:09:54.709Z,-0.54
2018-03-17T12:11:33.264Z,-0.66
2018-03-17T12:13:13.213Z,-0.70
2018-03-17T12:14:50.615Z,-0.75
2018-03-17T12:16:28.736Z,-0.77
2018-03-17T12:18:05.884Z,-0.74
2018-03-17T12:19:43.043Z,-0.78
2018-03-17T12:21:20.394Z,-0.64
2018-03-17T12:22:57.483Z,-0.71
2018-03-17T12:24:34.478Z,-0.62
2018-03-17T12:26:11.488Z,-0.45
2018-03-17T12:27:49.058Z,-0.57
2018-03-17T12:29:27.053Z,-0.50
2018-03-17T12:31:06.198Z,-0.32
2018-03-17T12:32:44.824Z,-0.55
2018-03-17T12:34:24.947Z,-0.57
2018-03-17T12:36:03.178Z,-0.32
2018-03-17T12:37:41.083Z,-0.56
2018-03-17T12:39:20.856Z,-0.65
2018-03-17T12:40:58.458Z,-0.64
2018-03-17T12:42:35.715Z,-0.74
2018-03-17T12:44:14.505Z,-0.69
2018-03-17T12:45:51.799Z,-0.71
2018-03-17T12:47:30.845Z,-0.60
2018-03-17T12:49:07.969Z,-0.64
2018-03-17T12:50:45.524Z,-0.55
2018-03-17T12:52:22.602Z,-0.37
2018-03-17T12:54:01.829Z,-0.51
2018-03-17T12:55:39.741Z,-0.53
2018-03-17T12:57:19.223Z,-0.63
2018-03-17T12:58:56.347Z,-0.57
2018-03-17T13:00:35.663Z,-0.55
2018-03-17T13:02:15.468Z,-0.33
2018-03-17T13:03:52.719Z,-0.39
2018-03-17T13:05:30.755Z,-0.37
2018-03-17T13:07:08.833Z,-0.51
2018-03-17T13:08:46.127Z,-0.68
2018-03-17T13:10:23.864Z,-0.75
2018-03-17T13:12:02.301Z,-0.52
2018-03-17T13:13:39.697Z,-0.44
2018-03-17T13:15:19.138Z,-0.32
2018-03-17T13:16:57.220Z,-0.30
2018-03-17T13:18:34.763Z,-0.19
2018-03-17T13:20:11.882Z,-0.26
2018-03-17T13:21:49.445Z,-0.21
2018-03-17T13:23:27.227Z,-0.21
2018-03-17T13:25:07.098Z,-0.23
2018-03-17T13:26:52.818Z,-0.54
2018-03-17T13:28:30.388Z,-0.54
2018-03-17T13:30:09.688Z,-0.56
2018-03-17T13:31:47.147Z,-0.51
2018-03-17T13:33:24.332Z,-0.59
2018-03-17T13:35:01.439Z,-0.42
2018-03-17T13:37:44.116Z,-0.59
2018-03-17T13:39:21.210Z,-0.64
2018-03-17T13:40:59.531Z,-0.58
2018-03-17T13:42:41.128Z,-0.36
2018-03-17T13:44:18.993Z,-0.54
2018-03-17T13:45:56.225Z,-0.60
2018-03-17T13:47:33.374Z,-0.60
2018-03-17T13:49:11.548Z,-0.47
2018-03-17T13:50:57.339Z,-0.19
2018-03-17T13:52:39.211Z,-0.26
2018-03-17T13:54:25.689Z,-0.51
2018-03-17T13:56:07.279Z,-0.44
2018-03-17T13:57:45.757Z,-0.50
2018-03-17T13:59:26.240Z,-0.49
2018-03-17T14:01:05.728Z,-0.64
2018-03-17T14:02:42.925Z,-0.66
2018-03-17T14:04:20.057Z,-0.61
2018-03-17T14:05:58.669Z,-0.62
2018-03-17T14:07:35.804Z,-0.55
2018-03-17T14:09:14.039Z,-0.65
2018-03-17T14:10:51.220Z,-0.74
2018-03-17T14:12:28.771Z,-0.79
2018-03-17T14:14:07.576Z,-0.92
2018-03-17T14:15:45.026Z,-0.96
2018-03-17T14:17:22.126Z,-0.83
2018-03-17T14:19:00.490Z,-0.87
2018-03-17T14:20:38.449Z,-0.79
2018-03-17T14:22:15.518Z,-0.76
2018-03-17T14:23:52.677Z,-0.78
2018-03-17T14:25:29.940Z,-0.59
2018-03-17T14:27:13.506Z,-0.72
2018-03-17T14:28:50.711Z,-0.75
2018-03-17T14:30:30.918Z,-0.75
2018-03-17T14:32:10.176Z,-0.62
2018-03-17T14:33:48.823Z,-0.65
2018-03-17T14:35:26.165Z,-0.73
2018-03-17T14:37:03.730Z,-0.59
2018-03-17T14:38:40.920Z,-0.58
2018-03-17T14:40:18.781Z,-0.49
2018-03-17T14:41:56.691Z,-0.60
2018-03-17T14:43:34.940Z,-0.64
2018-03-17T14:45:12.139Z,-0.58
2018-03-17T14:46:50.841Z,-0.65
2018-03-17T14:48:28.544Z,-0.66
2018-03-17T14:50:09.550Z,-0.62
2018-03-17T14:51:49.825Z,-0.42
2018-03-17T14:53:27.870Z,-0.38
2018-03-17T14:55:06.279Z,-0.60
2018-03-17T14:56:45.814Z,-0.48
2018-03-17T14:58:23.451Z,-0.29
2018-03-17T15:00:00.638Z,-0.46
2018-03-17T15:01:38.056Z,-0.67
2018-03-17T15:03:16.075Z,-0.71
2018-03-17T15:04:53.165Z,-0.80
2018-03-17T15:06:30.272Z,-0.75
2018-03-17T15:08:07.457Z,-0.73
2018-03-17T15:09:44.519Z,-0.87
2018-03-17T15:11:21.550Z,-0.91
2018-03-17T15:12:58.601Z,-0.86
2018-03-17T15:14:37.447Z,-0.90
2018-03-17T15:16:15.184Z,-0.76
2018-03-17T15:17:56.225Z,-0.55
2018-03-17T15:19:33.866Z,-0.60
2018-03-17T15:21:11.203Z,-0.75
2018-03-17T15:22:54.277Z,-0.67
2018-03-17T15:24:35.385Z,-0.63
2018-03-17T15:26:12.510Z,-0.41
2018-03-17T15:27:50.701Z,-0.50
2018-03-17T15:29:28.235Z,-0.57
2018-03-17T15:31:06.777Z,-0.51
2018-03-17T15:32:43.719Z,-0.80
2018-03-17T15:34:20.602Z,-0.90
2018-03-17T15:35:59.211Z,-0.81
2018-03-17T15:38:01.234Z,-0.78
2018-03-17T15:39:47.386Z,-0.52
2018-03-17T15:41:25.239Z,-0.59
2018-03-17T15:43:04.112Z,-0.68
2018-03-17T15:44:41.748Z,-0.74
2018-03-17T15:46:21.402Z,-0.77
2018-03-17T15:47:58.676Z,-0.73
2018-03-17T15:49:39.955Z,-0.84
2018-03-17T15:51:18.411Z,-0.72
2018-03-17T15:52:55.869Z,-0.47
2018-03-17T15:54:33.131Z,-0.50
2018-03-17T15:56:11.027Z,-0.73
2018-03-17T15:57:48.971Z,-0.75
2018-03-17T15:59:27.195Z,-0.86
2018-03-17T16:01:04.533Z,-0.83
2018-03-17T16:02:41.569Z,-0.70
2018-03-17T16:04:18.664Z,-0.59
2018-03-17T16:05:56.148Z,-0.76
2018-03-17T16:07:33.158Z,-0.79
2018-03-17T16:09:13.645Z,-0.91
2018-03-17T16:10:50.964Z,-1.00
2018-03-17T16:12:28.426Z,-0.90
2018-03-17T16:14:05.453Z,-0.91
2018-03-17T16:15:43.401Z,-0.97
2018-03-17T16:17:20.496Z,-0.70
2018-03-17T16:18:57.645Z,-0.57
2018-03-17T16:20:35.032Z,-0.77
2018-03-17T16:22:12.057Z,-0.84
2018-03-17T16:23:50.322Z,-0.86
2018-03-17T16:25:27.317Z,-0.80
2018-03-17T16:27:04.453Z,-0.57
2018-03-17T16:28:41.657Z,-0.71
2018-03-17T16:30:20.838Z,-0.66
2018-03-17T16:31:58.644Z,-0.72
2018-03-17T16:33:35.937Z,-0.62
2018-03-17T16:35:14.888Z,-0.53
2018-03-17T16:36:52.355Z,-0.58
2018-03-17T16:38:30.395Z,-0.78
2018-03-17T16:40:07.935Z,-0.79
2018-03-17T16:41:45.095Z,-0.86
2018-03-17T16:43:22.404Z,-1.12
2018-03-17T16:44:59.688Z,-1.12
2018-03-17T16:46:37.702Z,-1.11
2018-03-17T16:48:14.892Z,-1.19
2018-03-17T16:49:53.540Z,-1.21
2018-03-17T16:51:31.106Z,-1.07
2018-03-17T16:53:10.082Z,-1.02
2018-03-17T16:54:48.583Z,-1.02
2018-03-17T16:56:26.369Z,-1.13
2018-03-17T16:58:04.251Z,-1.21
2018-03-17T16:59:42.228Z,-1.14
2018-03-17T17:01:21.459Z,-1.15
2018-03-17T17:02:59.017Z,-0.81
2018-03-17T17:04:37.138Z,-0.82
2018-03-17T17:06:16.671Z,-0.82
2018-03-17T17:07:55.170Z,-0.78
2018-03-17T17:09:32.973Z,-0.86
2018-03-17T17:11:11.349Z,-0.88
2018-03-17T17:12:48.422Z,-1.07
2018-03-17T17:14:26.346Z,-0.99
2018-03-17T17:16:05.067Z,-0.74
2018-03-17T17:17:43.072Z,-0.56
2018-03-17T17:19:21.465Z,-0.83
2018-03-17T17:20:59.599Z,-0.81
2018-03-17T17:22:37.891Z,-0.59
2018-03-17T17:24:15.139Z,-0.84
2018-03-17T17:25:52.701Z,-1.09
2018-03-17T17:27:30.495Z,-0.91
2018-03-17T17:29:07.727Z,-0.90
2018-03-17T17:30:45.678Z,-0.98
2018-03-17T17:32:23.221Z,-1.13
2018-03-17T17:34:00.358Z,-1.15
2018-03-17T17:35:38.973Z,-1.12
2018-03-17T17:37:16.974Z,-1.21
2018-03-17T17:38:54.453Z,-1.26
2018-03-17T17:40:31.988Z,-1.05
2018-03-17T17:42:10.807Z,-1.21
2018-03-17T17:43:47.943Z,-1.30
2018-03-17T17:45:27.441Z,-1.35
2018-03-17T17:47:05.192Z,-1.25
2018-03-17T17:48:42.330Z,-1.23
2018-03-17T17:50:19.474Z,-1.19
2018-03-17T17:51:56.752Z,-0.81
2018-03-17T17:53:33.887Z,-0.89
2018-03-17T17:55:11.155Z,-1.07
2018-03-17T17:56:48.349Z,-1.15
2018-03-17T17:58:26.622Z,-1.22
2018-03-17T18:00:05.428Z,-1.18
2018-03-17T18:01:45.621Z,-1.21
2018-03-17T18:03:23.888Z,-1.27
2018-03-17T18:05:01.419Z,-1.15
2018-03-17T18:06:38.311Z,-1.17
2018-03-17T18:08:15.348Z,-1.25
2018-03-17T18:09:53.190Z,-1.29
2018-03-17T18:11:30.439Z,-1.27
2018-03-17T18:13:07.567Z,-1.13
2018-03-17T18:14:44.743Z,-0.92
2018-03-17T18:16:22.166Z,-1.11
2018-03-17T18:17:59.572Z,-1.22
2018-03-17T18:19:36.640Z,-1.21
2018-03-17T18:21:14.719Z,-1.22
2018-03-17T18:22:52.246Z,-1.08
2018-03-17T18:24:30.399Z,-1.17
2018-03-17T18:26:08.166Z,-1.08
2018-03-17T18:27:47.627Z,-0.94
2018-03-17T18:29:26.948Z,-0.88
2018-03-17T18:31:05.299Z,-0.95
2018-03-17T18:32:42.682Z,-1.09
2018-03-17T18:34:20.462Z,-1.10
2018-03-17T18:35:57.460Z,-1.09
2018-03-17T18:37:34.711Z,-1.02
2018-03-17T18:39:12.736Z,-1.20
2018-03-17T18:40:50.181Z,-1.28
2018-03-17T18:42:27.226Z,-1.31
2018-03-17T18:44:04.254Z,-1.30
2018-03-17T18:45:41.533Z,-1.19
2018-03-17T18:47:18.828Z,-1.07
2018-03-17T18:48:56.424Z,-0.66
2018-03-17T18:50:34.238Z,-0.82
2018-03-17T18:52:11.401Z,-0.96
2018-03-17T18:53:48.548Z,-0.92
2018-03-17T18:55:26.171Z,-1.06
2018-03-17T18:57:03.146Z,-1.08
2018-03-17T18:58:40.251Z,-1.05
2018-03-17T19:00:18.917Z,-0.98
2018-03-17T19:01:57.315Z,-1.02
2018-03-17T19:03:34.308Z,-0.78
2018-03-17T19:05:12.085Z,-0.72
2018-03-17T19:06:50.099Z,-0.50
2018-03-17T19:08:26.956Z,-0.47
2018-03-17T19:10:04.070Z,-0.52
2018-03-17T19:11:41.159Z,-0.56
2018-03-17T19:13:18.682Z,-0.60
2018-03-17T19:14:55.684Z,-0.72
2018-03-17T19:16:33.168Z,-0.96
2018-03-17T19:18:10.339Z,-0.97
2018-03-17T19:19:47.928Z,-0.90
2018-03-17T19:21:25.001Z,-0.76
2018-03-17T19:23:02.873Z,-0.77
2018-03-17T19:24:39.897Z,-0.53
2018-03-17T19:26:17.237Z,-0.69
2018-03-17T19:27:54.495Z,-0.78
2018-03-17T19:29:31.702Z,-0.90
2018-03-17T19:31:08.807Z,-1.02
2018-03-17T19:32:46.256Z,-0.79
2018-03-17T19:34:23.320Z,-0.75
2018-03-17T19:36:01.140Z,-0.79
2018-03-17T19:37:38.307Z,-0.47
2018-03-17T19:39:15.844Z,-0.68
2018-03-17T19:40:53.194Z,-0.85
2018-03-17T19:42:31.386Z,-0.95
2018-03-17T19:44:09.540Z,-1.09
2018-03-17T19:45:47.584Z,-0.99
2018-03-17T19:47:25.127Z,-1.09
2018-03-17T19:49:02.136Z,-1.09
2018-03-17T19:50:39.304Z,-1.14
2018-03-17T19:52:16.887Z,-1.13
2018-03-17T19:53:54.860Z,-1.08
2018-03-17T19:55:32.631Z,-1.07
2018-03-17T19:57:10.451Z,-0.96
2018-03-17T19:58:48.930Z,-1.02
2018-03-17T20:00:28.086Z,-0.89
2018-03-17T20:02:06.710Z,-0.89
2018-03-17T20:03:44.182Z,-1.11
2018-03-17T20:05:28.556Z,-1.07
2018-03-17T20:07:12.623Z,-1.03
2018-03-17T20:08:49.998Z,-1.04
2018-03-17T20:10:28.261Z,-1.02
2018-03-17T20:12:05.943Z,-0.98
2018-03-17T20:13:43.383Z,-0.90
2018-03-17T20:15:26.321Z,-0.88
2018-03-17T20:17:09.697Z,-0.83
2018-03-17T20:20:53.953Z,-0.64
2018-03-17T20:24:07.533Z,-0.76
2018-03-17T20:25:45.009Z,-0.55
2018-03-17T20:27:21.934Z,-0.31
2018-03-17T20:29:00.894Z,-0.23
2018-03-17T20:30:38.634Z,-0.06
2018-03-17T20:32:15.962Z,-0.06
2018-03-17T20:33:53.475Z,-0.42
2018-03-17T20:35:31.544Z,-0.38
2018-03-17T20:37:09.646Z,-0.13
2018-03-17T20:38:47.624Z,-0.36
2018-03-17T20:40:25.203Z,-0.50
2018-03-17T20:42:02.387Z,-0.74
2018-03-17T20:43:39.676Z,-0.66
2018-03-17T20:45:18.828Z,-0.65
2018-03-17T20:46:56.324Z,-0.72
2018-03-17T20:48:37.683Z,-0.82
2018-03-17T20:50:21.769Z,-0.92
2018-03-17T20:51:58.839Z,-0.91
2018-03-17T20:53:35.820Z,-0.76
2018-03-17T20:55:13.733Z,-0.51
2018-03-17T20:56:51.023Z,-0.39
2018-03-17T20:58:27.998Z,-0.24
2018-03-17T21:00:05.785Z,-0.45
2018-03-17T21:01:43.422Z,-0.53
2018-03-17T21:03:20.487Z,-0.49
2018-03-17T21:05:05.761Z,-0.28
2018-03-17T21:06:43.178Z,-0.33
2018-03-17T21:08:21.116Z,-0.48
2018-03-17T21:09:58.141Z,-0.37
2018-03-17T21:11:35.894Z,-0.46
2018-03-17T21:13:12.933Z,-0.56
2018-03-17T21:14:50.453Z,-0.62
2018-03-17T21:16:28.698Z,-0.52
2018-03-17T21:18:06.593Z,-0.39
2018-03-17T21:19:44.519Z,-0.38
2018-03-17T21:21:22.575Z,-0.52
2018-03-17T21:22:59.523Z,-0.57
2018-03-17T21:24:37.241Z,-0.55
2018-03-17T21:26:14.160Z,-0.62
2018-03-17T21:27:51.189Z,-0.80
2018-03-17T21:29:29.597Z,-0.84
2018-03-17T21:31:06.840Z,-0.82
2018-03-17T21:32:44.115Z,-0.62